Time;durP1;ratioP1;P1;durP2;ratioP2;P2;SDS_P1;SDS_P2;PMS_P1;PMS_P2;Temp;Humidity;BMP_temperature;BMP_pressure;BME280_temperature;BME280_humidity;BME280_pressure;Samples;Min_cycle;Max_cycle;Signal;HPM_P1;HPM_P2
2024/01/03 00:00:08;;;;;;;9.63;4.45;;;;;;;-3.71;71.78;99751.69;1788284;80;20212;-69
2024/01/03 00:02:37;;;;;;;10.05;4.78;;;;;;;-3.72;71.74;99755.34;1779716;80;21099;-71
2024/01/03 00:05:09;;;;;;;9.38;4.90;;;;;;;-3.78;71.63;99754.02;1788177;79;21111;-73
2024/01/03 00:07:38;;;;;;;10.23;4.10;;;;;;;-3.81;71.81;99751.58;1788445;80;21185;-72
2024/01/03 00:10:42;;;;;;;9.90;4.67;;;;;;;-3.80;71.75;99765.81;1786672;80;21122;-71
2024/01/03 00:13:54;;;;;;;8.73;4.22;;;;;;;-3.84;71.82;99764.72;1774720;81;21131;-70
2024/01/03 00:16:23;;;;;;;9.40;4.75;;;;;;;-3.85;72.00;99764.84;1774509;81;21096;-71
2024/01/03 00:18:58;;;;;;;10.70;4.87;;;;;;;-3.83;72.05;99754.86;1774633;80;21139;-71
2024/01/03 00:21:28;;;;;;;8.78;4.78;;;;;;;-3.86;72.06;99751.95;1774814;80;21135;-71
2024/01/03 00:24:00;;;;;;;9.88;4.33;;;;;;;-3.89;72.16;99740.15;1774462;81;21136;-70
2024/01/03 00:26:30;;;;;;;9.30;5.20;;;;;;;-3.87;72.14;99749.39;1774492;81;21589;-71
2024/01/03 00:28:58;;;;;;;9.68;4.95;;;;;;;-3.92;72.21;99740.84;1774400;81;21825;-70
2024/01/03 00:31:43;;;;;;;10.40;5.03;;;;;;;-3.92;72.32;99741.70;1774566;81;21648;-70
2024/01/03 00:34:35;;;;;;;11.88;5.00;;;;;;;-3.91;72.36;99737.20;1774385;81;21143;-71
2024/01/03 00:37:07;;;;;;;9.65;4.70;;;;;;;-3.92;72.36;99745.71;1774602;81;21076;-72
2024/01/03 00:39:35;;;;;;;8.98;4.53;;;;;;;-3.92;72.47;99739.02;1767871;81;21088;-71
2024/01/03 00:42:04;;;;;;;10.88;4.40;;;;;;;-3.88;72.57;99740.52;1774474;81;21175;-70
2024/01/03 00:44:32;;;;;;;9.45;5.03;;;;;;;-3.87;72.57;99736.02;1774714;81;21080;-71
2024/01/03 00:47:01;;;;;;;10.08;5.33;;;;;;;-3.86;72.51;99731.02;1774327;81;21563;-69
2024/01/03 00:49:29;;;;;;;11.00;5.08;;;;;;;-3.82;72.48;99743.19;1774678;81;21186;-72
2024/01/03 00:51:58;;;;;;;8.93;4.28;;;;;;;-3.85;72.23;99732.23;1774648;81;21112;-70
2024/01/03 00:54:26;;;;;;;7.78;4.00;;;;;;;-3.85;72.28;99730.91;1774657;81;21175;-71
2024/01/03 00:56:55;;;;;;;11.65;5.15;;;;;;;-3.79;72.31;99743.42;1774553;81;21555;-70
2024/01/03 00:59:24;;;;;;;9.80;4.85;;;;;;;-3.77;72.21;99722.26;1774384;81;21083;-70
2024/01/03 01:01:52;;;;;;;9.60;4.80;;;;;;;-3.77;72.01;99720.92;1774582;79;21140;-71
2024/01/03 01:04:21;;;;;;;11.73;5.33;;;;;;;-3.73;72.23;99725.05;1774643;81;21135;-71
2024/01/03 01:06:49;;;;;;;11.97;5.60;;;;;;;-3.65;72.12;99727.11;1774576;79;21158;-71
2024/01/03 01:09:17;;;;;;;9.50;4.83;;;;;;;-3.66;71.87;99719.56;1774421;81;21100;-71
2024/01/03 01:11:46;;;;;;;9.45;4.97;;;;;;;-3.72;71.74;99722.73;1774393;80;21159;-70
2024/01/03 01:14:15;;;;;;;10.90;4.45;;;;;;;-3.79;71.54;99724.20;1774442;81;21108;-71
2024/01/03 01:16:43;;;;;;;11.25;5.00;;;;;;;-3.82;71.50;99727.62;1774688;80;21107;-70
2024/01/03 01:19:12;;;;;;;8.35;4.65;;;;;;;-3.86;71.54;99741.73;1763911;81;21992;-71
2024/01/03 01:21:41;;;;;;;9.73;5.08;;;;;;;-3.83;71.58;99722.75;1774485;80;21106;-69
2024/01/03 01:24:11;;;;;;;11.55;5.10;;;;;;;-3.83;71.54;99726.77;1774672;80;21190;-70
2024/01/03 01:26:39;;;;;;;8.55;4.83;;;;;;;-3.84;71.41;99711.69;1774555;80;21174;-70
2024/01/03 01:29:08;;;;;;;10.80;5.00;;;;;;;-3.87;71.30;99701.23;1774496;81;21600;-70
2024/01/03 01:31:37;;;;;;;8.98;4.33;;;;;;;-3.88;71.42;99698.19;1774511;81;21120;-70
2024/01/03 01:34:06;;;;;;;8.15;4.55;;;;;;;-3.89;71.40;99693.81;1774769;80;21111;-71
2024/01/03 01:36:34;;;;;;;12.40;5.37;;;;;;;-3.95;71.24;99688.43;1774619;81;21096;-71
2024/01/03 01:39:03;;;;;;;11.03;4.58;;;;;;;-3.96;71.41;99696.58;1774404;81;21108;-69
2024/01/03 01:41:32;;;;;;;8.95;4.65;;;;;;;-3.94;71.39;99696.82;1774462;81;21123;-69
2024/01/03 01:44:01;;;;;;;10.30;4.80;;;;;;;-3.96;71.27;99690.74;1774445;81;21127;-70
2024/01/03 01:46:30;;;;;;;9.50;4.65;;;;;;;-3.95;71.46;99699.13;1774410;81;21112;-71
2024/01/03 01:48:58;;;;;;;12.88;4.60;;;;;;;-3.93;71.56;99705.70;1774406;81;21112;-70
2024/01/03 01:51:27;;;;;;;9.15;4.37;;;;;;;-3.92;71.42;99696.21;1774389;79;21640;-69
2024/01/03 01:53:56;;;;;;;9.48;4.72;;;;;;;-3.94;71.32;99689.28;1774526;81;21112;-73
2024/01/03 01:56:24;;;;;;;10.30;4.80;;;;;;;-3.95;71.28;99687.09;1774322;81;21143;-72
2024/01/03 01:58:53;;;;;;;11.57;4.67;;;;;;;-4.00;71.11;99683.09;1774429;81;21540;-69
2024/01/03 02:01:22;;;;;;;12.68;5.47;;;;;;;-4.05;71.21;99690.63;1774560;79;21183;-71
2024/01/03 02:03:50;;;;;;;10.80;4.80;;;;;;;-4.07;71.35;99694.77;1774485;81;21092;-71
2024/01/03 02:06:20;;;;;;;10.68;5.40;;;;;;;-4.05;71.41;99689.30;1774596;81;21143;-69
2024/01/03 02:08:49;;;;;;;10.80;5.03;;;;;;;-4.03;71.58;99702.05;1774394;81;21127;-71
2024/01/03 02:11:17;;;;;;;11.83;5.62;;;;;;;-4.00;71.58;99712.52;1774493;80;21111;-69
2024/01/03 02:13:48;;;;;;;10.90;5.12;;;;;;;-4.02;71.35;99718.47;1774505;81;21080;-72
2024/01/03 02:16:18;;;;;;;11.08;5.17;;;;;;;-4.05;71.39;99715.55;1774512;81;21597;-70
2024/01/03 02:18:46;;;;;;;10.50;5.58;;;;;;;-4.04;71.41;99711.05;1774536;81;21107;-71
2024/01/03 02:21:15;;;;;;;11.48;5.45;;;;;;;-4.06;71.23;99707.16;1774750;81;21115;-70
2024/01/03 02:23:44;;;;;;;10.90;5.33;;;;;;;-4.11;71.35;99693.31;1774558;80;21140;-71
2024/01/03 02:26:13;;;;;;;12.07;5.50;;;;;;;-4.11;71.46;99689.30;1774634;81;21133;-70
2024/01/03 02:28:43;;;;;;;10.55;5.62;;;;;;;-4.08;71.61;99682.36;1774717;80;21108;-69
2024/01/03 02:31:12;;;;;;;13.25;6.00;;;;;;;-4.05;71.62;99670.56;1774491;81;21621;-69
2024/01/03 02:33:41;;;;;;;13.32;6.30;;;;;;;-4.03;71.51;99677.49;1774571;81;21127;-70
2024/01/03 02:36:09;;;;;;;12.37;5.80;;;;;;;-4.05;71.47;99678.59;1774579;81;21151;-70
2024/01/03 02:38:38;;;;;;;12.18;5.70;;;;;;;-4.07;71.50;99695.25;1774640;81;21151;-69
2024/01/03 02:41:06;;;;;;;11.55;5.72;;;;;;;-4.13;71.55;99703.28;1774506;81;21139;-71
2024/01/03 02:43:35;;;;;;;11.48;5.20;;;;;;;-4.13;71.65;99694.41;1774496;79;21092;-71
2024/01/03 02:46:04;;;;;;;12.73;5.92;;;;;;;-4.15;71.72;99682.00;1774669;81;21103;-70
2024/01/03 02:48:32;;;;;;;11.48;5.40;;;;;;;-4.13;71.95;99670.33;1774612;80;21112;-71
2024/01/03 02:51:01;;;;;;;11.50;5.62;;;;;;;-4.08;72.05;99690.39;1774476;81;21131;-71
2024/01/03 02:53:30;;;;;;;11.35;5.83;;;;;;;-4.04;72.03;99679.81;1774649;81;21107;-71
2024/01/03 02:55:58;;;;;;;10.95;5.37;;;;;;;-4.03;72.02;99671.30;1774524;81;21088;-70
2024/01/03 02:58:27;;;;;;;13.08;6.40;;;;;;;-3.99;72.07;99672.75;1774664;80;21104;-70
2024/01/03 03:00:55;;;;;;;11.85;5.80;;;;;;;-3.98;72.02;99669.09;1774547;81;21108;-70
2024/01/03 03:03:24;;;;;;;13.08;6.20;;;;;;;-3.97;72.13;99672.14;1774646;81;21151;-70
2024/01/03 03:05:52;;;;;;;15.13;6.20;;;;;;;-3.95;72.07;99674.20;1774507;81;21096;-70
2024/01/03 03:08:21;;;;;;;13.78;7.17;;;;;;;-3.89;71.97;99674.59;1774595;81;21120;-70
2024/01/03 03:10:49;;;;;;;16.27;7.35;;;;;;;-3.92;71.96;99676.14;1774682;80;21222;-71
2024/01/03 03:13:18;;;;;;;16.00;7.37;;;;;;;-3.93;71.85;99685.63;1780418;79;21123;-70
2024/01/03 03:15:47;;;;;;;16.32;7.92;;;;;;;-3.95;71.95;99678.22;1780425;80;21520;-69
2024/01/03 03:18:16;;;;;;;16.05;7.90;;;;;;;-3.96;72.01;99677.36;1780258;80;21547;-70
2024/01/03 03:20:45;;;;;;;15.88;7.37;;;;;;;-3.96;72.08;99666.66;1780555;80;21119;-70
2024/01/03 03:23:13;;;;;;;18.10;7.87;;;;;;;-3.99;71.97;99671.41;1780265;80;21563;-69
2024/01/03 03:25:42;;;;;;;17.95;8.70;;;;;;;-3.98;72.21;99673.96;1769225;80;21080;-69
2024/01/03 03:28:10;;;;;;;17.95;7.75;;;;;;;-3.95;72.40;99657.66;1780301;80;21567;-69
2024/01/03 03:30:39;;;;;;;18.10;7.45;;;;;;;-3.91;72.30;99656.93;1780321;80;21151;-69
2024/01/03 03:33:07;;;;;;;17.70;8.58;;;;;;;-3.95;72.29;99653.66;1780234;80;21131;-69
2024/01/03 03:35:36;;;;;;;18.37;8.18;;;;;;;-3.95;72.31;99655.47;1763111;79;21142;-69
2024/01/03 03:38:04;;;;;;;17.65;7.87;;;;;;;-3.94;72.48;99647.81;1780250;80;21658;-70
2024/01/03 03:40:33;;;;;;;17.77;7.65;;;;;;;-3.92;72.60;99642.70;1780424;80;21135;-70
2024/01/03 03:43:02;;;;;;;18.23;7.90;;;;;;;-3.91;72.63;99651.09;1780129;80;21092;-69
2024/01/03 03:45:31;;;;;;;17.05;8.03;;;;;;;-3.94;72.52;99652.67;1780157;79;21158;-69
2024/01/03 03:48:00;;;;;;;16.48;7.70;;;;;;;-4.00;72.50;99655.84;1780163;80;21404;-70
2024/01/03 03:50:29;;;;;;;16.30;7.62;;;;;;;-4.00;72.79;99653.66;1780426;80;21358;-70
2024/01/03 03:52:57;;;;;;;14.85;6.85;;;;;;;-3.98;72.89;99653.90;1780322;80;21579;-70
2024/01/03 03:55:26;;;;;;;17.65;7.72;;;;;;;-3.97;72.87;99641.38;1780506;80;21131;-71
2024/01/03 03:57:54;;;;;;;19.67;8.50;;;;;;;-3.99;72.71;99633.47;1780258;80;21581;-70
2024/01/03 04:00:23;;;;;;;17.92;8.80;;;;;;;-4.02;72.63;99631.53;1780300;80;21581;-71
2024/01/03 04:02:52;;;;;;;19.35;8.23;;;;;;;-4.05;72.82;99629.10;1780262;80;21170;-70
2024/01/03 04:05:20;;;;;;;18.27;8.53;;;;;;;-4.02;72.89;99632.87;1780197;80;21108;-70
2024/01/03 04:07:49;;;;;;;17.55;8.30;;;;;;;-4.08;72.72;99636.04;1780302;80;21147;-69
2024/01/03 04:10:17;;;;;;;19.57;8.58;;;;;;;-4.15;72.88;99629.84;1780511;80;21140;-70
2024/01/03 04:12:46;;;;;;;18.73;8.18;;;;;;;-4.10;73.11;99624.61;1776462;80;21108;-69
2024/01/03 04:15:15;;;;;;;19.12;8.35;;;;;;;-4.07;73.15;99629.23;1774471;81;21564;-69
2024/01/03 04:17:44;;;;;;;17.80;8.20;;;;;;;-4.06;73.09;99634.94;1774707;81;21213;-70
2024/01/03 04:20:13;;;;;;;17.25;7.22;;;;;;;-4.10;72.98;99633.48;1774779;81;21567;-70
2024/01/03 04:22:43;;;;;;;18.45;7.37;;;;;;;-4.07;73.18;99631.05;1774748;81;21613;-70
2024/01/03 04:25:12;;;;;;;16.95;7.35;;;;;;;-4.06;73.12;99630.93;1774492;81;21080;-70
2024/01/03 04:27:40;;;;;;;15.75;7.95;;;;;;;-4.05;73.16;99629.10;1774419;81;21108;-70
2024/01/03 04:30:09;;;;;;;15.75;7.47;;;;;;;-4.07;73.18;99629.23;1774933;80;21155;-69
2024/01/03 04:32:37;;;;;;;18.12;8.45;;;;;;;-4.05;73.21;99632.63;1774553;81;21107;-69
2024/01/03 04:35:08;;;;;;;17.67;7.72;;;;;;;-4.03;73.14;99632.02;1763806;81;21115;-70
2024/01/03 04:37:36;;;;;;;23.07;8.53;;;;;;;-4.04;73.05;99633.48;1774477;81;21560;-69
2024/01/03 04:40:06;;;;;;;15.43;7.33;;;;;;;-4.05;73.12;99642.48;1774611;81;21080;-70
2024/01/03 04:42:35;;;;;;;15.65;7.75;;;;;;;-4.03;73.18;99644.55;1774558;81;21111;-70
2024/01/03 04:45:04;;;;;;;17.02;7.78;;;;;;;-4.03;73.27;99647.22;1774482;81;21245;-70
2024/01/03 04:47:34;;;;;;;16.40;7.42;;;;;;;-4.03;73.11;99640.05;1774508;81;21563;-70
2024/01/03 04:50:03;;;;;;;17.35;7.45;;;;;;;-4.11;72.63;99634.46;1774532;81;21096;-71
2024/01/03 04:52:33;;;;;;;16.67;6.97;;;;;;;-4.23;72.66;99630.95;1774491;79;21100;-70
2024/01/03 04:55:02;;;;;;;18.15;7.85;;;;;;;-4.30;72.85;99627.55;1774475;81;21131;-70
2024/01/03 04:57:35;;;;;;;19.17;7.40;;;;;;;-4.31;73.07;99632.54;1774561;81;21551;-69
2024/01/03 05:00:04;;;;;;;19.05;7.15;;;;;;;-4.31;73.19;99625.37;1774468;81;21135;-69
2024/01/03 05:02:35;;;;;;;17.65;7.20;;;;;;;-4.32;73.22;99634.36;1774666;81;21139;-68
2024/01/03 05:05:04;;;;;;;16.37;7.28;;;;;;;-4.33;73.11;99629.14;1774337;81;21713;-70
2024/01/03 05:07:34;;;;;;;17.00;8.00;;;;;;;-4.40;73.08;99627.44;1774663;81;21231;-70
2024/01/03 05:10:08;;;;;;;15.38;7.22;;;;;;;-4.40;73.36;99626.58;1774495;81;21107;-70
2024/01/03 05:12:36;;;;;;;17.32;7.65;;;;;;;-4.37;73.42;99627.67;1780390;80;21099;-69
2024/01/03 05:15:08;;;;;;;18.15;7.50;;;;;;;-4.37;73.49;99619.66;1788133;80;21107;-69
2024/01/03 05:17:36;;;;;;;17.15;7.78;;;;;;;-4.40;73.24;99624.77;1788404;80;21087;-70
2024/01/03 05:20:07;;;;;;;19.42;7.35;;;;;;;-4.41;73.43;99623.55;1770834;80;21107;-69
2024/01/03 05:22:36;;;;;;;16.80;7.53;;;;;;;-4.41;73.40;99624.40;1788513;80;21135;-69
2024/01/03 05:25:06;;;;;;;13.72;7.22;;;;;;;-4.42;73.32;99634.73;1788446;80;21118;-70
2024/01/03 05:27:35;;;;;;;16.37;7.62;;;;;;;-4.47;73.41;99629.74;1788460;80;21127;-70
2024/01/03 05:30:04;;;;;;;15.28;7.20;;;;;;;-4.48;73.43;99645.91;1788234;80;21583;-70
2024/01/03 05:32:33;;;;;;;17.23;7.40;;;;;;;-4.49;73.57;99638.86;1788234;79;21193;-69
2024/01/03 05:35:01;;;;;;;21.62;8.05;;;;;;;-4.50;73.69;99638.01;1788230;79;21155;-69
2024/01/03 05:37:30;;;;;;;17.35;7.83;;;;;;;-4.51;73.84;99641.66;1788363;80;21115;-71
2024/01/03 05:39:59;;;;;;;15.70;7.78;;;;;;;-4.49;74.10;99643.72;1771028;80;21134;-69
2024/01/03 05:42:27;;;;;;;15.98;7.58;;;;;;;-4.47;74.21;99641.77;1788446;80;21111;-69
2024/01/03 05:44:56;;;;;;;18.90;8.00;;;;;;;-4.45;74.29;99638.13;1788172;80;21103;-69
2024/01/03 05:47:25;;;;;;;19.57;8.20;;;;;;;-4.40;74.41;99646.64;1788181;80;21587;-68
2024/01/03 05:49:53;;;;;;;19.90;8.28;;;;;;;-4.37;74.36;99655.27;1788421;80;21144;-69
2024/01/03 05:52:22;;;;;;;16.87;7.83;;;;;;;-4.35;74.54;99654.66;1788496;80;21115;-69
2024/01/03 05:54:50;;;;;;;22.20;8.58;;;;;;;-4.33;74.52;99656.72;1788466;80;22030;-70
2024/01/03 05:57:18;;;;;;;18.25;8.80;;;;;;;-4.31;74.60;99660.13;1788542;80;21166;-70
2024/01/03 05:59:47;;;;;;;17.07;7.72;;;;;;;-4.26;74.53;99649.91;1788403;80;21119;-71
2024/01/03 06:02:16;;;;;;;17.25;7.97;;;;;;;-4.23;74.41;99649.67;1788471;80;21614;-70
2024/01/03 06:04:46;;;;;;;17.15;7.80;;;;;;;-4.21;74.35;99639.70;1788372;80;21139;-69
2024/01/03 06:07:14;;;;;;;18.12;7.55;;;;;;;-4.21;74.22;99637.02;1788484;80;21621;-71
2024/01/03 06:09:44;;;;;;;17.95;7.42;;;;;;;-4.20;74.22;99645.41;1788351;79;21126;-70
2024/01/03 06:12:12;;;;;;;19.52;7.67;;;;;;;-4.20;74.09;99640.55;1786211;80;21139;-70
2024/01/03 06:14:42;;;;;;;16.95;7.67;;;;;;;-4.25;74.09;99638.24;1774551;81;21185;-70
2024/01/03 06:17:11;;;;;;;15.08;7.10;;;;;;;-4.29;74.19;99636.78;1774494;79;21134;-70
2024/01/03 06:19:40;;;;;;;21.12;7.28;;;;;;;-4.28;74.34;99636.30;1774537;79;21569;-71
2024/01/03 06:22:08;;;;;;;17.73;7.70;;;;;;;-4.27;74.41;99630.83;1774630;81;21166;-70
2024/01/03 06:24:37;;;;;;;20.48;8.20;;;;;;;-4.31;74.56;99620.02;1774696;81;21132;-70
2024/01/03 06:27:05;;;;;;;18.85;8.03;;;;;;;-4.33;74.83;99623.78;1776445;80;21576;-70
2024/01/03 06:29:34;;;;;;;18.02;8.43;;;;;;;-4.33;74.98;99617.95;1774537;81;21116;-71
2024/01/03 06:32:05;;;;;;;21.07;8.43;;;;;;;-4.29;75.05;99622.08;1774668;80;21135;-70
2024/01/03 06:34:33;;;;;;;19.15;8.20;;;;;;;-4.28;75.12;99614.91;1774639;81;22064;-71
2024/01/03 06:37:02;;;;;;;18.45;8.10;;;;;;;-4.21;75.34;99610.28;1774398;81;21104;-70
2024/01/03 06:39:31;;;;;;;20.57;8.73;;;;;;;-4.13;75.44;99606.98;1774480;81;21591;-72
2024/01/03 06:42:00;;;;;;;20.88;8.33;;;;;;;-4.15;75.26;99606.27;1774869;81;21139;-70
2024/01/03 06:44:29;;;;;;;19.00;9.28;;;;;;;-4.16;75.46;99590.70;1774647;81;21083;-70
2024/01/03 06:46:57;;;;;;;18.77;8.08;;;;;;;-4.16;75.83;99594.72;1774398;81;21143;-70
2024/01/03 06:49:26;;;;;;;17.23;8.10;;;;;;;-4.15;76.19;99589.73;1774588;81;21107;-71
2024/01/03 06:51:57;;;;;;;21.12;9.08;;;;;;;-4.13;76.55;99580.73;1774555;81;21084;-70
2024/01/03 06:54:26;;;;;;;25.05;9.25;;;;;;;-4.13;76.90;99579.39;1774643;79;21128;-70
2024/01/03 06:56:54;;;;;;;20.10;9.03;;;;;;;-4.14;77.12;99575.87;1774474;81;21123;-71
2024/01/03 06:59:23;;;;;;;19.73;9.43;;;;;;;-4.09;77.55;99570.14;1763743;81;21576;-71
2024/01/03 07:01:52;;;;;;;24.37;10.15;;;;;;;-4.08;78.09;99569.17;1774488;80;21138;-71
2024/01/03 07:04:22;;;;;;;24.90;10.32;;;;;;;-4.11;78.42;99564.92;1763861;81;21096;-71
2024/01/03 07:06:52;;;;;;;25.90;10.43;;;;;;;-4.09;78.69;99563.45;1774205;80;21084;-71
2024/01/03 07:09:20;;;;;;;24.80;11.45;;;;;;;-4.05;78.87;99566.24;1774741;79;21166;-71
2024/01/03 07:11:49;;;;;;;24.82;11.05;;;;;;;-4.04;79.17;99567.94;1774587;81;21112;-71
2024/01/03 07:14:17;;;;;;;26.15;10.65;;;;;;;-4.02;79.43;99563.31;1786372;80;21111;-71
2024/01/03 07:16:46;;;;;;;25.00;12.23;;;;;;;-4.00;79.92;99557.35;1788341;80;21103;-70
2024/01/03 07:19:16;;;;;;;22.45;10.63;;;;;;;-3.97;80.17;99554.42;1770934;80;21174;-71
2024/01/03 07:21:44;;;;;;;23.77;10.98;;;;;;;-3.95;80.59;99543.11;1788446;80;21096;-70
2024/01/03 07:24:13;;;;;;;25.43;12.18;;;;;;;-3.98;80.94;99538.01;1788400;80;21187;-71
2024/01/03 07:26:41;;;;;;;25.15;10.88;;;;;;;-4.03;81.32;99534.38;1788268;80;21115;-71
2024/01/03 07:29:10;;;;;;;23.67;10.88;;;;;;;-4.03;81.66;99526.35;1788315;80;21151;-69
2024/01/03 07:31:38;;;;;;;25.10;10.95;;;;;;;-4.01;82.20;99528.91;1788216;80;21127;-70
2024/01/03 07:34:07;;;;;;;26.23;11.38;;;;;;;-3.96;82.49;99520.00;1788244;80;21139;-70
2024/01/03 07:36:36;;;;;;;23.87;10.98;;;;;;;-3.88;82.73;99522.92;1788471;80;21175;-71
2024/01/03 07:39:05;;;;;;;23.47;10.63;;;;;;;-3.83;82.81;99514.02;1788127;80;21594;-71
2024/01/03 07:41:35;;;;;;;21.48;9.65;;;;;;;-3.81;82.83;99521.44;1788371;80;21163;-71
2024/01/03 07:44:05;;;;;;;21.05;9.43;;;;;;;-3.76;82.88;99512.53;1779528;80;21111;-72
2024/01/03 07:46:33;;;;;;;22.90;8.78;;;;;;;-3.68;82.89;99514.08;1788228;80;21103;-71
2024/01/03 07:49:01;;;;;;;20.50;9.20;;;;;;;-3.69;82.84;99508.36;1788293;80;21103;-71
2024/01/03 07:51:33;;;;;;;22.80;10.20;;;;;;;-3.65;82.86;99504.45;1779455;80;21605;-70
2024/01/03 07:54:02;;;;;;;21.93;9.33;;;;;;;-3.62;82.82;99510.88;1788390;80;21091;-70
2024/01/03 07:56:31;;;;;;;21.37;10.18;;;;;;;-3.62;82.92;99510.88;1788232;79;21090;-71
2024/01/03 07:59:00;;;;;;;19.25;9.38;;;;;;;-3.62;82.78;99504.19;1788135;80;21146;-71
2024/01/03 08:01:29;;;;;;;17.87;8.55;;;;;;;-3.61;82.97;99503.70;1779494;80;21115;-71
2024/01/03 08:03:57;;;;;;;26.00;13.95;;;;;;;-3.58;83.16;99505.63;1788286;80;21103;-70
2024/01/03 08:06:26;;;;;;;23.80;9.78;;;;;;;-3.58;83.04;99496.25;1788188;79;21127;-71
2024/01/03 08:08:55;;;;;;;22.48;10.75;;;;;;;-3.56;83.02;99491.62;1771216;80;21103;-71
2024/01/03 08:11:23;;;;;;;22.65;9.65;;;;;;;-3.56;83.07;99486.27;1788476;80;21222;-71
2024/01/03 08:13:52;;;;;;;22.75;10.03;;;;;;;-3.55;83.20;99479.93;1780466;80;21159;-70
2024/01/03 08:16:20;;;;;;;19.62;8.63;;;;;;;-3.53;83.38;99478.47;1774656;81;21107;-71
2024/01/03 08:18:49;;;;;;;21.90;9.50;;;;;;;-3.47;83.51;99479.77;1774413;79;21128;-72
2024/01/03 08:21:19;;;;;;;19.70;9.20;;;;;;;-3.46;83.38;99472.09;1764045;79;21120;-71
2024/01/03 08:23:48;;;;;;;20.80;9.38;;;;;;;-3.41;83.52;99465.84;1776564;80;21543;-70
2024/01/03 08:26:19;;;;;;;27.10;11.12;;;;;;;-3.39;83.64;99462.06;1774668;81;21111;-70
2024/01/03 08:28:47;;;;;;;21.33;9.85;;;;;;;-3.35;83.58;99458.14;1723240;81;21115;-70
2024/01/03 08:31:17;;;;;;;22.50;10.23;;;;;;;-3.30;83.70;99458.59;1774500;81;21108;-71
2024/01/03 08:33:46;;;;;;;21.33;9.68;;;;;;;-3.24;83.75;99455.90;1774728;81;21575;-71
2024/01/03 08:36:16;;;;;;;20.20;9.28;;;;;;;-3.18;83.75;99450.50;1774573;80;21092;-71
2024/01/03 08:38:47;;;;;;;19.62;8.98;;;;;;;-3.14;83.59;99444.73;1764086;81;21193;-71
2024/01/03 08:41:19;;;;;;;24.85;10.13;;;;;;;-3.12;83.17;99452.14;1774684;81;21162;-71
2024/01/03 08:43:47;;;;;;;22.58;10.08;;;;;;;-3.11;83.18;99444.47;1774459;79;21154;-72
2024/01/03 08:46:16;;;;;;;20.65;10.00;;;;;;;-3.12;83.21;99435.23;1774602;81;21195;-71
2024/01/03 08:48:45;;;;;;;20.50;9.85;;;;;;;-3.12;83.18;99429.37;1774561;81;21139;-71
2024/01/03 08:51:16;;;;;;;19.82;9.50;;;;;;;-3.12;83.21;99423.17;1774568;80;21100;-71
2024/01/03 08:53:44;;;;;;;20.32;9.63;;;;;;;-3.09;83.19;99422.91;1774649;79;21107;-71
2024/01/03 08:56:18;;;;;;;22.70;10.20;;;;;;;-3.08;83.10;99416.06;1771125;79;22138;-72
2024/01/03 08:58:49;;;;;;;20.85;9.78;;;;;;;-3.07;82.93;99404.37;1692933;84;21129;-72
2024/01/03 09:01:19;;;;;;;22.05;9.95;;;;;;;-3.08;82.92;99401.33;1765639;81;21182;-72
2024/01/03 09:03:47;;;;;;;23.05;10.58;;;;;;;-2.97;84.77;99397.20;1706689;84;21191;-72
2024/01/03 09:06:22;;;;;;;21.95;9.05;;;;;;;-2.84;84.47;99401.47;1759119;81;21560;-73
2024/01/03 09:08:54;;;;;;;21.42;9.98;;;;;;;-2.78;84.62;99402.27;1772413;81;21147;-74
2024/01/03 09:11:26;;;;;;;20.17;9.90;;;;;;;-2.77;84.19;99395.91;1772725;81;21163;-71
2024/01/03 09:13:56;;;;;;;21.05;9.25;;;;;;;-2.76;83.94;99393.59;1710508;83;21154;-73
2024/01/03 09:16:30;;;;;;;21.35;9.40;;;;;;;-2.79;83.34;99395.20;1782677;80;21166;-74
2024/01/03 09:18:58;;;;;;;19.55;9.20;;;;;;;-2.88;82.72;99389.69;1760875;80;21561;-74
2024/01/03 09:21:27;;;;;;;19.02;9.30;;;;;;;-2.87;82.96;99385.17;1722549;82;21177;-74
2024/01/03 09:23:56;;;;;;;18.35;9.00;;;;;;;-2.83;83.06;99374.53;1746876;82;21153;-73
2024/01/03 09:26:24;;;;;;;20.55;9.53;;;;;;;-2.77;83.14;99379.83;1751814;82;21169;-73
2024/01/03 09:28:53;;;;;;;21.27;9.50;;;;;;;-2.76;83.06;99373.00;1751838;82;21114;-73
2024/01/03 09:31:21;;;;;;;25.10;9.43;;;;;;;-2.74;83.32;99368.84;1751656;82;21159;-72
2024/01/03 09:33:50;;;;;;;21.80;10.23;;;;;;;-2.69;83.95;99360.73;1751524;82;21159;-73
2024/01/03 09:36:20;;;;;;;22.75;10.40;;;;;;;-2.64;83.69;99356.29;1752037;82;21284;-73
2024/01/03 09:38:51;;;;;;;25.10;10.45;;;;;;;-2.63;84.15;99349.94;1751262;81;21138;-74
2024/01/03 09:41:20;;;;;;;20.27;10.00;;;;;;;-2.52;84.73;99352.52;1751650;82;21174;-74
2024/01/03 09:43:50;;;;;;;19.42;9.08;;;;;;;-2.51;84.37;99340.81;1751662;82;21166;-73
2024/01/03 09:46:20;;;;;;;22.25;9.60;;;;;;;-2.57;83.92;99342.71;1751876;82;21158;-73
2024/01/03 09:48:49;;;;;;;20.30;9.28;;;;;;;-2.64;84.00;99332.16;1751895;82;21593;-72
2024/01/03 09:51:21;;;;;;;27.25;9.98;;;;;;;-2.63;84.09;99333.36;1751697;81;21226;-73
2024/01/03 09:53:51;;;;;;;20.00;9.83;;;;;;;-2.59;84.12;99329.45;1751833;81;21178;-73
2024/01/03 09:56:20;;;;;;;24.00;10.38;;;;;;;-2.58;84.20;99307.50;1751676;82;21587;-75
2024/01/03 09:58:48;;;;;;;21.97;10.15;;;;;;;-2.58;84.19;99308.84;1751882;80;21186;-74
2024/01/03 10:01:17;;;;;;;22.02;10.30;;;;;;;-2.61;84.16;99307.26;1751586;81;21134;-73
2024/01/03 10:03:45;;;;;;;21.93;9.73;;;;;;;-2.57;84.33;99297.13;1751659;81;21092;-73
2024/01/03 10:06:14;;;;;;;23.07;10.23;;;;;;;-2.57;84.24;99295.79;1778300;80;21079;-73
2024/01/03 10:09:03;;;;;;;23.98;10.82;;;;;;;-2.53;84.35;99292.33;1782220;80;21084;-73
2024/01/03 10:11:33;;;;;;;24.15;9.85;;;;;;;-2.49;84.30;99290.56;1782590;80;21198;-75
2024/01/03 10:14:20;;;;;;;20.77;9.38;;;;;;;-2.49;84.20;99277.16;1779502;80;21603;-74
2024/01/03 10:16:49;;;;;;;23.35;10.55;;;;;;;-2.47;84.25;99276.52;1770165;80;21143;-73
2024/01/03 10:19:19;;;;;;;24.07;10.45;;;;;;;-2.49;84.18;99265.09;1774166;81;21587;-74
2024/01/03 10:21:53;;;;;;;21.95;10.32;;;;;;;-2.44;84.45;99259.30;1773995;80;21163;-73
2024/01/03 10:24:24;;;;;;;22.87;10.88;;;;;;;-2.43;84.44;99254.28;1774407;81;21107;-73
2024/01/03 10:26:53;;;;;;;24.37;11.12;;;;;;;-2.40;84.64;99245.45;1774558;80;21108;-73
2024/01/03 10:29:22;;;;;;;33.33;13.28;;;;;;;-2.34;84.37;99242.20;1789142;80;21096;-74
2024/01/03 10:31:52;;;;;;;27.80;11.65;;;;;;;-2.36;84.64;99232.61;1774146;81;21593;-73
2024/01/03 10:34:23;;;;;;;24.37;11.15;;;;;;;-2.36;84.70;99225.41;1774248;81;21182;-72
2024/01/03 10:36:54;;;;;;;23.67;10.58;;;;;;;-2.34;84.64;99220.73;1774243;81;21084;-73
2024/01/03 10:39:25;;;;;;;26.30;11.15;;;;;;;-2.31;84.57;99217.77;1774284;80;21135;-73
2024/01/03 10:41:54;;;;;;;27.73;12.05;;;;;;;-2.29;84.45;99206.39;1774204;79;21813;-73
2024/01/03 10:44:23;;;;;;;27.52;11.85;;;;;;;-2.30;84.24;99204.70;1774247;81;21809;-73
2024/01/03 10:46:54;;;;;;;25.20;11.53;;;;;;;-2.30;84.06;99201.18;1774334;81;21563;-73
2024/01/03 10:49:22;;;;;;;26.62;12.75;;;;;;;-2.31;84.00;99194.13;1774466;81;21566;-73
2024/01/03 10:52:01;;;;;;;29.63;12.37;;;;;;;-2.34;83.96;99179.17;1774392;81;21115;-73
2024/01/03 10:54:35;;;;;;;29.85;13.70;;;;;;;-2.34;83.83;99173.80;1774252;81;21908;-73
2024/01/03 10:57:04;;;;;;;27.07;12.63;;;;;;;-2.35;83.98;99169.42;1774303;80;21543;-72
2024/01/03 10:59:38;;;;;;;30.10;13.40;;;;;;;-2.33;83.85;99158.55;1774240;81;21151;-74
2024/01/03 11:02:24;;;;;;;31.30;13.95;;;;;;;-2.35;83.87;99157.86;1774382;81;21108;-73
2024/01/03 11:05:02;;;;;;;32.03;14.35;;;;;;;-2.33;84.02;99155.87;1773584;80;21112;-73
2024/01/03 11:07:35;;;;;;;27.85;12.63;;;;;;;-2.34;84.12;99154.18;1706397;84;21159;-73
2024/01/03 11:10:06;;;;;;;27.87;12.55;;;;;;;-2.30;84.34;99161.78;1772709;81;21123;-74
2024/01/03 11:12:35;;;;;;;29.55;13.68;;;;;;;-2.26;84.61;99151.11;1772500;81;21594;-74
2024/01/03 11:15:23;;;;;;;29.77;14.18;;;;;;;-2.27;84.70;99154.79;1772599;80;21175;-73
2024/01/03 11:17:54;;;;;;;25.27;12.18;;;;;;;-2.26;84.75;99148.92;1769934;81;21116;-73
2024/01/03 11:20:32;;;;;;;29.32;14.50;;;;;;;-2.30;84.76;99137.64;1706676;84;21132;-73
2024/01/03 11:23:04;;;;;;;25.45;12.15;;;;;;;-2.33;84.70;99132.58;1772774;81;21108;-74
2024/01/03 11:25:49;;;;;;;28.38;14.00;;;;;;;-2.30;84.88;99130.94;1772562;81;21772;-74
2024/01/03 11:31:19;;;;;;;24.67;11.95;;;;;;;-2.30;84.84;99112.66;1617536;87;21612;-73
2024/01/03 11:33:47;;;;;;;21.55;10.43;;;;;;;-2.29;85.03;99111.17;1628512;87;21200;-73
2024/01/03 11:36:41;;;;;;;20.02;10.65;;;;;;;-2.31;85.00;99104.27;1615949;89;21340;-74
2024/01/03 11:39:30;;;;;;;22.25;10.98;;;;;;;-2.30;85.21;99105.45;1624541;88;21841;-73